sensor_id;sensor_type;location;lat;lon;timestamp;P1;durP1;ratioP1;P2;durP2;ratioP2
7985;SDS011;4038;42.612;23.066;2022-11-12T00:02:24;41.17;;;37.23;;
7985;SDS011;4038;42.612;23.066;2022-11-12T00:04:50;39.78;;;35.92;;
7985;SDS011;4038;42.612;23.066;2022-11-12T00:07:15;37.80;;;34.13;;
7985;SDS011;4038;42.612;23.066;2022-11-12T00:09:40;39.20;;;35.50;;
7985;SDS011;4038;42.612;23.066;2022-11-12T00:12:06;39.38;;;35.75;;
7985;SDS011;4038;42.612;23.066;2022-11-12T00:14:31;37.77;;;34.00;;
7985;SDS011;4038;42.612;23.066;2022-11-12T00:16:57;38.28;;;34.65;;
7985;SDS011;4038;42.612;23.066;2022-11-12T00:19:22;38.73;;;35.03;;
7985;SDS011;4038;42.612;23.066;2022-11-12T00:21:47;37.90;;;34.40;;
7985;SDS011;4038;42.612;23.066;2022-11-12T00:24:13;39.23;;;35.73;;
7985;SDS011;4038;42.612;23.066;2022-11-12T00:26:38;39.67;;;35.80;;
7985;SDS011;4038;42.612;23.066;2022-11-12T00:29:03;37.53;;;33.72;;
7985;SDS011;4038;42.612;23.066;2022-11-12T00:31:29;37.80;;;34.10;;
7985;SDS011;4038;42.612;23.066;2022-11-12T00:33:54;37.50;;;33.80;;
7985;SDS011;4038;42.612;23.066;2022-11-12T00:36:20;39.07;;;35.37;;
7985;SDS011;4038;42.612;23.066;2022-11-12T00:38:45;38.33;;;34.78;;
7985;SDS011;4038;42.612;23.066;2022-11-12T00:41:10;34.35;;;31.23;;
7985;SDS011;4038;42.612;23.066;2022-11-12T00:43:36;36.83;;;33.13;;
7985;SDS011;4038;42.612;23.066;2022-11-12T00:46:01;35.03;;;31.73;;
7985;SDS011;4038;42.612;23.066;2022-11-12T00:48:27;37.37;;;33.77;;
7985;SDS011;4038;42.612;23.066;2022-11-12T00:50:58;36.43;;;33.27;;
7985;SDS011;4038;42.612;23.066;2022-11-12T00:53:24;37.63;;;34.25;;
7985;SDS011;4038;42.612;23.066;2022-11-12T00:55:50;37.47;;;34.07;;
7985;SDS011;4038;42.612;23.066;2022-11-12T00:58:15;36.30;;;32.90;;
7985;SDS011;4038;42.612;23.066;2022-11-12T01:00:40;36.77;;;33.20;;
7985;SDS011;4038;42.612;23.066;2022-11-12T01:03:06;36.77;;;33.33;;
7985;SDS011;4038;42.612;23.066;2022-11-12T01:05:31;37.50;;;33.80;;
7985;SDS011;4038;42.612;23.066;2022-11-12T01:07:58;38.77;;;35.17;;
7985;SDS011;4038;42.612;23.066;2022-11-12T01:10:23;38.70;;;35.00;;
7985;SDS011;4038;42.612;23.066;2022-11-12T01:12:48;39.17;;;35.37;;
7985;SDS011;4038;42.612;23.066;2022-11-12T01:15:14;36.83;;;33.17;;
7985;SDS011;4038;42.612;23.066;2022-11-12T01:17:39;37.73;;;34.13;;
7985;SDS011;4038;42.612;23.066;2022-11-12T01:20:05;37.23;;;33.80;;
7985;SDS011;4038;42.612;23.066;2022-11-12T01:22:30;38.73;;;35.23;;
7985;SDS011;4038;42.612;23.066;2022-11-12T01:24:56;37.57;;;34.00;;
7985;SDS011;4038;42.612;23.066;2022-11-12T01:27:21;36.55;;;33.15;;
7985;SDS011;4038;42.612;23.066;2022-11-12T01:29:47;37.80;;;34.10;;
7985;SDS011;4038;42.612;23.066;2022-11-12T01:32:12;38.17;;;34.57;;
7985;SDS011;4038;42.612;23.066;2022-11-12T01:34:37;38.17;;;34.50;;
7985;SDS011;4038;42.612;23.066;2022-11-12T01:37:03;35.77;;;32.57;;
7985;SDS011;4038;42.612;23.066;2022-11-12T01:39:28;32.57;;;29.77;;
7985;SDS011;4038;42.612;23.066;2022-11-12T01:41:53;28.97;;;26.57;;
7985;SDS011;4038;42.612;23.066;2022-11-12T01:49:26;27.05;;;25.05;;
7985;SDS011;4038;42.612;23.066;2022-11-12T01:51:55;27.20;;;25.10;;
7985;SDS011;4038;42.612;23.066;2022-11-12T01:54:27;27.60;;;25.40;;
7985;SDS011;4038;42.612;23.066;2022-11-12T01:56:53;26.93;;;24.93;;
7985;SDS011;4038;42.612;23.066;2022-11-12T01:59:23;27.70;;;25.70;;
7985;SDS011;4038;42.612;23.066;2022-11-12T02:01:53;27.17;;;25.37;;
7985;SDS011;4038;42.612;23.066;2022-11-12T02:04:18;24.95;;;23.15;;
7985;SDS011;4038;42.612;23.066;2022-11-12T02:06:44;24.93;;;23.00;;
7985;SDS011;4038;42.612;23.066;2022-11-12T02:09:12;25.33;;;23.43;;
7985;SDS011;4038;42.612;23.066;2022-11-12T02:11:38;26.80;;;24.90;;
7985;SDS011;4038;42.612;23.066;2022-11-12T02:14:03;26.30;;;24.50;;
7985;SDS011;4038;42.612;23.066;2022-11-12T02:16:37;25.10;;;23.30;;
7985;SDS011;4038;42.612;23.066;2022-11-12T02:19:06;25.57;;;23.67;;
7985;SDS011;4038;42.612;23.066;2022-11-12T02:21:34;24.60;;;22.90;;
7985;SDS011;4038;42.612;23.066;2022-11-12T02:24:00;25.00;;;23.20;;
7985;SDS011;4038;42.612;23.066;2022-11-12T02:26:42;26.23;;;24.33;;
7985;SDS011;4038;42.612;23.066;2022-11-12T02:29:11;26.63;;;24.63;;
7985;SDS011;4038;42.612;23.066;2022-11-12T02:31:36;25.93;;;24.13;;
7985;SDS011;4038;42.612;23.066;2022-11-12T02:34:02;27.20;;;25.13;;
7985;SDS011;4038;42.612;23.066;2022-11-12T02:36:28;26.20;;;24.40;;
7985;SDS011;4038;42.612;23.066;2022-11-12T02:38:54;25.77;;;23.88;;
7985;SDS011;4038;42.612;23.066;2022-11-12T02:41:20;26.13;;;24.33;;
7985;SDS011;4038;42.612;23.066;2022-11-12T02:43:46;25.50;;;23.63;;
7985;SDS011;4038;42.612;23.066;2022-11-12T02:46:11;23.90;;;22.27;;
7985;SDS011;4038;42.612;23.066;2022-11-12T02:48:37;25.17;;;23.37;;
7985;SDS011;4038;42.612;23.066;2022-11-12T02:51:03;24.67;;;22.97;;
7985;SDS011;4038;42.612;23.066;2022-11-12T02:53:28;25.00;;;23.10;;
7985;SDS011;4038;42.612;23.066;2022-11-12T02:55:56;23.43;;;21.77;;
7985;SDS011;4038;42.612;23.066;2022-11-12T02:58:21;24.23;;;22.53;;
7985;SDS011;4038;42.612;23.066;2022-11-12T03:00:47;25.47;;;23.50;;
7985;SDS011;4038;42.612;23.066;2022-11-12T03:03:13;25.83;;;23.73;;
7985;SDS011;4038;42.612;23.066;2022-11-12T03:05:39;25.17;;;23.27;;
7985;SDS011;4038;42.612;23.066;2022-11-12T03:08:05;26.20;;;24.27;;
7985;SDS011;4038;42.612;23.066;2022-11-12T03:10:32;24.23;;;22.58;;
7985;SDS011;4038;42.612;23.066;2022-11-12T03:12:59;22.83;;;21.23;;
7985;SDS011;4038;42.612;23.066;2022-11-12T03:15:25;24.47;;;22.57;;
7985;SDS011;4038;42.612;23.066;2022-11-12T03:17:52;26.42;;;24.42;;
7985;SDS011;4038;42.612;23.066;2022-11-12T03:20:18;25.52;;;23.73;;
7985;SDS011;4038;42.612;23.066;2022-11-12T03:22:54;25.80;;;23.70;;
7985;SDS011;4038;42.612;23.066;2022-11-12T03:25:24;25.87;;;23.97;;
7985;SDS011;4038;42.612;23.066;2022-11-12T03:27:58;25.20;;;23.40;;
7985;SDS011;4038;42.612;23.066;2022-11-12T03:30:29;25.20;;;23.40;;
7985;SDS011;4038;42.612;23.066;2022-11-12T03:32:56;25.80;;;23.80;;
7985;SDS011;4038;42.612;23.066;2022-11-12T03:35:21;24.30;;;22.50;;
7985;SDS011;4038;42.612;23.066;2022-11-12T03:37:47;24.13;;;22.40;;
7985;SDS011;4038;42.612;23.066;2022-11-12T03:40:13;24.10;;;22.30;;
7985;SDS011;4038;42.612;23.066;2022-11-12T03:42:43;24.30;;;22.60;;
7985;SDS011;4038;42.612;23.066;2022-11-12T03:45:12;24.63;;;22.93;;
7985;SDS011;4038;42.612;23.066;2022-11-12T03:47:45;24.93;;;23.13;;
7985;SDS011;4038;42.612;23.066;2022-11-12T03:50:12;25.43;;;23.63;;
7985;SDS011;4038;42.612;23.066;2022-11-12T03:52:43;24.43;;;22.60;;
7985;SDS011;4038;42.612;23.066;2022-11-12T03:55:16;25.23;;;23.52;;
7985;SDS011;4038;42.612;23.066;2022-11-12T03:57:43;26.27;;;24.47;;
7985;SDS011;4038;42.612;23.066;2022-11-12T04:00:11;25.23;;;23.53;;
7985;SDS011;4038;42.612;23.066;2022-11-12T04:02:37;24.67;;;22.87;;
7985;SDS011;4038;42.612;23.066;2022-11-12T04:05:03;24.30;;;22.50;;
7985;SDS011;4038;42.612;23.066;2022-11-12T04:07:49;25.93;;;24.13;;
7985;SDS011;4038;42.612;23.066;2022-11-12T04:10:39;25.77;;;23.97;;
7985;SDS011;4038;42.612;23.066;2022-11-12T04:13:04;23.93;;;22.17;;
7985;SDS011;4038;42.612;23.066;2022-11-12T04:15:48;24.73;;;23.00;;
7985;SDS011;4038;42.612;23.066;2022-11-12T04:18:34;23.37;;;21.63;;
7985;SDS011;4038;42.612;23.066;2022-11-12T04:21:18;24.17;;;22.37;;
7985;SDS011;4038;42.612;23.066;2022-11-12T04:24:02;25.47;;;23.67;;
7985;SDS011;4038;42.612;23.066;2022-11-12T04:26:27;25.70;;;23.83;;
7985;SDS011;4038;42.612;23.066;2022-11-12T04:28:53;25.13;;;23.27;;
7985;SDS011;4038;42.612;23.066;2022-11-12T04:31:36;24.88;;;22.98;;
7985;SDS011;4038;42.612;23.066;2022-11-12T04:34:02;23.97;;;22.27;;
7985;SDS011;4038;42.612;23.066;2022-11-12T04:36:45;24.70;;;23.10;;
7985;SDS011;4038;42.612;23.066;2022-11-12T04:39:11;26.03;;;24.20;;
7985;SDS011;4038;42.612;23.066;2022-11-12T04:41:36;25.23;;;23.37;;
7985;SDS011;4038;42.612;23.066;2022-11-12T04:44:20;24.80;;;22.93;;
7985;SDS011;4038;42.612;23.066;2022-11-12T04:47:04;24.77;;;22.90;;
7985;SDS011;4038;42.612;23.066;2022-11-12T04:49:29;25.43;;;23.63;;
7985;SDS011;4038;42.612;23.066;2022-11-12T04:51:55;25.90;;;24.03;;
7985;SDS011;4038;42.612;23.066;2022-11-12T04:54:29;25.90;;;23.70;;
7985;SDS011;4038;42.612;23.066;2022-11-12T04:56:55;24.93;;;23.03;;
7985;SDS011;4038;42.612;23.066;2022-11-12T04:59:20;24.87;;;22.93;;
7985;SDS011;4038;42.612;23.066;2022-11-12T05:01:45;24.93;;;23.13;;
7985;SDS011;4038;42.612;23.066;2022-11-12T05:04:11;24.93;;;23.13;;
7985;SDS011;4038;42.612;23.066;2022-11-12T05:06:36;26.10;;;24.30;;
7985;SDS011;4038;42.612;23.066;2022-11-12T05:09:17;24.83;;;23.03;;
7985;SDS011;4038;42.612;23.066;2022-11-12T05:11:44;24.93;;;23.13;;
7985;SDS011;4038;42.612;23.066;2022-11-12T05:14:09;25.40;;;23.47;;
7985;SDS011;4038;42.612;23.066;2022-11-12T05:16:35;25.90;;;24.10;;
7985;SDS011;4038;42.612;23.066;2022-11-12T05:19:01;25.03;;;23.33;;
7985;SDS011;4038;42.612;23.066;2022-11-12T05:21:26;24.33;;;22.63;;
7985;SDS011;4038;42.612;23.066;2022-11-12T05:24:10;25.43;;;23.57;;
7985;SDS011;4038;42.612;23.066;2022-11-12T05:26:36;24.40;;;22.67;;
7985;SDS011;4038;42.612;23.066;2022-11-12T05:29:01;26.13;;;24.33;;
7985;SDS011;4038;42.612;23.066;2022-11-12T05:31:27;26.13;;;24.40;;
7985;SDS011;4038;42.612;23.066;2022-11-12T05:33:53;25.30;;;23.50;;
7985;SDS011;4038;42.612;23.066;2022-11-12T05:36:18;24.37;;;22.57;;
7985;SDS011;4038;42.612;23.066;2022-11-12T05:38:43;24.20;;;22.60;;
7985;SDS011;4038;42.612;23.066;2022-11-12T05:41:09;25.27;;;23.57;;
7985;SDS011;4038;42.612;23.066;2022-11-12T05:43:34;24.73;;;23.00;;
7985;SDS011;4038;42.612;23.066;2022-11-12T05:46:00;25.97;;;23.97;;
7985;SDS011;4038;42.612;23.066;2022-11-12T05:48:25;25.20;;;23.30;;
7985;SDS011;4038;42.612;23.066;2022-11-12T05:50:51;26.57;;;24.67;;
7985;SDS011;4038;42.612;23.066;2022-11-12T05:53:17;26.47;;;24.67;;
7985;SDS011;4038;42.612;23.066;2022-11-12T05:55:42;25.83;;;23.80;;
7985;SDS011;4038;42.612;23.066;2022-11-12T05:58:08;26.93;;;24.93;;
7985;SDS011;4038;42.612;23.066;2022-11-12T06:00:34;26.70;;;24.80;;
7985;SDS011;4038;42.612;23.066;2022-11-12T06:03:09;28.37;;;26.07;;
7985;SDS011;4038;42.612;23.066;2022-11-12T06:05:35;28.63;;;26.30;;
7985;SDS011;4038;42.612;23.066;2022-11-12T06:08:02;27.70;;;25.63;;
7985;SDS011;4038;42.612;23.066;2022-11-12T06:10:29;27.13;;;25.23;;
7985;SDS011;4038;42.612;23.066;2022-11-12T06:12:55;27.50;;;25.53;;
7985;SDS011;4038;42.612;23.066;2022-11-12T06:15:21;26.97;;;25.03;;
7985;SDS011;4038;42.612;23.066;2022-11-12T06:17:48;26.27;;;24.37;;
7985;SDS011;4038;42.612;23.066;2022-11-12T06:20:14;26.23;;;24.35;;
7985;SDS011;4038;42.612;23.066;2022-11-12T06:22:39;26.33;;;24.52;;
7985;SDS011;4038;42.612;23.066;2022-11-12T06:25:05;26.60;;;24.63;;
7985;SDS011;4038;42.612;23.066;2022-11-12T06:27:30;26.35;;;24.55;;
7985;SDS011;4038;42.612;23.066;2022-11-12T06:29:56;26.95;;;25.08;;
7985;SDS011;4038;42.612;23.066;2022-11-12T06:32:22;26.15;;;24.35;;
7985;SDS011;4038;42.612;23.066;2022-11-12T06:34:48;26.88;;;25.08;;
7985;SDS011;4038;42.612;23.066;2022-11-12T06:37:15;25.67;;;23.70;;
7985;SDS011;4038;42.612;23.066;2022-11-12T06:39:40;25.13;;;23.33;;
7985;SDS011;4038;42.612;23.066;2022-11-12T06:42:05;27.40;;;25.40;;
7985;SDS011;4038;42.612;23.066;2022-11-12T06:44:31;27.02;;;25.08;;
7985;SDS011;4038;42.612;23.066;2022-11-12T06:46:56;27.98;;;25.88;;
7985;SDS011;4038;42.612;23.066;2022-11-12T06:49:22;27.67;;;25.50;;
7985;SDS011;4038;42.612;23.066;2022-11-12T06:51:48;27.02;;;24.92;;
7985;SDS011;4038;42.612;23.066;2022-11-12T06:54:14;28.17;;;26.08;;
7985;SDS011;4038;42.612;23.066;2022-11-12T06:56:39;29.80;;;27.50;;
7985;SDS011;4038;42.612;23.066;2022-11-12T06:59:05;26.45;;;24.45;;
7985;SDS011;4038;42.612;23.066;2022-11-12T07:01:30;27.20;;;25.20;;
7985;SDS011;4038;42.612;23.066;2022-11-12T07:03:56;26.60;;;24.63;;
7985;SDS011;4038;42.612;23.066;2022-11-12T07:06:21;26.45;;;24.55;;
7985;SDS011;4038;42.612;23.066;2022-11-12T07:08:46;26.92;;;25.02;;
7985;SDS011;4038;42.612;23.066;2022-11-12T07:11:13;26.77;;;24.88;;
7985;SDS011;4038;42.612;23.066;2022-11-12T07:13:39;26.55;;;24.77;;
7985;SDS011;4038;42.612;23.066;2022-11-12T07:16:06;26.88;;;25.08;;
7985;SDS011;4038;42.612;23.066;2022-11-12T07:18:34;26.42;;;24.60;;
7985;SDS011;4038;42.612;23.066;2022-11-12T07:21:00;27.75;;;25.77;;
7985;SDS011;4038;42.612;23.066;2022-11-12T07:23:31;27.67;;;25.77;;
7985;SDS011;4038;42.612;23.066;2022-11-12T07:25:58;27.63;;;25.73;;
7985;SDS011;4038;42.612;23.066;2022-11-12T07:28:26;26.48;;;24.40;;
7985;SDS011;4038;42.612;23.066;2022-11-12T07:31:02;25.88;;;23.98;;
7985;SDS011;4038;42.612;23.066;2022-11-12T07:33:30;26.65;;;24.75;;
7985;SDS011;4038;42.612;23.066;2022-11-12T07:35:59;27.20;;;25.05;;
7985;SDS011;4038;42.612;23.066;2022-11-12T07:38:30;27.20;;;25.10;;
7985;SDS011;4038;42.612;23.066;2022-11-12T07:41:01;27.35;;;25.35;;
7985;SDS011;4038;42.612;23.066;2022-11-12T07:43:29;26.77;;;24.77;;
7985;SDS011;4038;42.612;23.066;2022-11-12T07:46:14;26.42;;;24.52;;
7985;SDS011;4038;42.612;23.066;2022-11-12T07:48:44;27.30;;;25.30;;
7985;SDS011;4038;42.612;23.066;2022-11-12T07:53:38;25.55;;;23.77;;
7985;SDS011;4038;42.612;23.066;2022-11-12T07:56:04;25.70;;;23.88;;
7985;SDS011;4038;42.612;23.066;2022-11-12T07:58:31;25.48;;;23.67;;
7985;SDS011;4038;42.612;23.066;2022-11-12T08:00:57;25.10;;;23.00;;
7985;SDS011;4038;42.612;23.066;2022-11-12T08:03:36;25.40;;;23.60;;
7985;SDS011;4038;42.612;23.066;2022-11-12T08:06:02;25.23;;;23.33;;
7985;SDS011;4038;42.612;23.066;2022-11-12T08:08:28;26.30;;;24.48;;
7985;SDS011;4038;42.612;23.066;2022-11-12T08:10:56;24.60;;;22.70;;
7985;SDS011;4038;42.612;23.066;2022-11-12T08:13:22;24.38;;;22.58;;
7985;SDS011;4038;42.612;23.066;2022-11-12T08:15:47;25.27;;;23.30;;
7985;SDS011;4038;42.612;23.066;2022-11-12T08:18:13;24.77;;;22.77;;
7985;SDS011;4038;42.612;23.066;2022-11-12T08:20:38;25.95;;;24.02;;
7985;SDS011;4038;42.612;23.066;2022-11-12T08:23:04;25.00;;;23.30;;
7985;SDS011;4038;42.612;23.066;2022-11-12T08:25:29;26.70;;;24.17;;
7985;SDS011;4038;42.612;23.066;2022-11-12T08:27:58;26.38;;;24.17;;
7985;SDS011;4038;42.612;23.066;2022-11-12T08:30:24;23.45;;;21.75;;
7985;SDS011;4038;42.612;23.066;2022-11-12T08:32:57;24.92;;;23.15;;
7985;SDS011;4038;42.612;23.066;2022-11-12T08:35:25;24.95;;;23.15;;
7985;SDS011;4038;42.612;23.066;2022-11-12T08:38:02;28.50;;;26.30;;
7985;SDS011;4038;42.612;23.066;2022-11-12T08:40:30;27.98;;;26.08;;
7985;SDS011;4038;42.612;23.066;2022-11-12T08:43:03;28.05;;;25.85;;
7985;SDS011;4038;42.612;23.066;2022-11-12T08:45:31;27.25;;;25.30;;
7985;SDS011;4038;42.612;23.066;2022-11-12T08:48:01;27.45;;;25.25;;
7985;SDS011;4038;42.612;23.066;2022-11-12T08:50:28;25.95;;;24.00;;
7985;SDS011;4038;42.612;23.066;2022-11-12T08:53:00;27.00;;;25.10;;
7985;SDS011;4038;42.612;23.066;2022-11-12T08:55:36;27.02;;;25.02;;
7985;SDS011;4038;42.612;23.066;2022-11-12T08:58:02;26.55;;;24.40;;
7985;SDS011;4038;42.612;23.066;2022-11-12T09:00:42;25.52;;;23.55;;
7985;SDS011;4038;42.612;23.066;2022-11-12T09:03:12;26.60;;;24.55;;
7985;SDS011;4038;42.612;23.066;2022-11-12T09:05:38;26.33;;;24.52;;
7985;SDS011;4038;42.612;23.066;2022-11-12T09:08:05;28.45;;;26.20;;
7985;SDS011;4038;42.612;23.066;2022-11-12T09:10:32;26.52;;;24.48;;
7985;SDS011;4038;42.612;23.066;2022-11-12T09:12:58;27.00;;;24.80;;
7985;SDS011;4038;42.612;23.066;2022-11-12T09:15:23;26.02;;;24.02;;
7985;SDS011;4038;42.612;23.066;2022-11-12T09:17:55;27.48;;;25.52;;
7985;SDS011;4038;42.612;23.066;2022-11-12T09:20:22;28.38;;;26.38;;
7985;SDS011;4038;42.612;23.066;2022-11-12T09:22:48;26.45;;;24.58;;
7985;SDS011;4038;42.612;23.066;2022-11-12T09:25:14;27.02;;;25.02;;
7985;SDS011;4038;42.612;23.066;2022-11-12T09:27:39;26.60;;;24.60;;
7985;SDS011;4038;42.612;23.066;2022-11-12T09:30:05;26.42;;;24.38;;
7985;SDS011;4038;42.612;23.066;2022-11-12T09:32:31;38.92;;;23.58;;
7985;SDS011;4038;42.612;23.066;2022-11-12T09:34:56;25.83;;;24.02;;
7985;SDS011;4038;42.612;23.066;2022-11-12T09:37:22;23.95;;;22.33;;
7985;SDS011;4038;42.612;23.066;2022-11-12T09:39:47;25.92;;;24.05;;
7985;SDS011;4038;42.612;23.066;2022-11-12T09:42:14;26.38;;;24.58;;
7985;SDS011;4038;42.612;23.066;2022-11-12T09:44:42;27.10;;;24.50;;
7985;SDS011;4038;42.612;23.066;2022-11-12T09:52:19;27.23;;;25.20;;
7985;SDS011;4038;42.612;23.066;2022-11-12T09:54:51;24.55;;;22.90;;
7985;SDS011;4038;42.612;23.066;2022-11-12T09:57:25;24.30;;;22.67;;
7985;SDS011;4038;42.612;23.066;2022-11-12T09:59:50;25.50;;;23.77;;
7985;SDS011;4038;42.612;23.066;2022-11-12T10:10:47;24.88;;;23.20;;
7985;SDS011;4038;42.612;23.066;2022-11-12T10:24:22;23.85;;;22.25;;
7985;SDS011;4038;42.612;23.066;2022-11-12T10:26:48;23.25;;;21.65;;
7985;SDS011;4038;42.612;23.066;2022-11-12T10:31:53;23.80;;;22.15;;
7985;SDS011;4038;42.612;23.066;2022-11-12T10:34:19;23.70;;;22.00;;
7985;SDS011;4038;42.612;23.066;2022-11-12T10:36:58;23.42;;;21.63;;
7985;SDS011;4038;42.612;23.066;2022-11-12T10:39:42;23.48;;;21.77;;
7985;SDS011;4038;42.612;23.066;2022-11-12T10:42:15;23.15;;;21.45;;
7985;SDS011;4038;42.612;23.066;2022-11-12T10:44:42;22.98;;;21.05;;
7985;SDS011;4038;42.612;23.066;2022-11-12T10:50:11;22.95;;;21.33;;
7985;SDS011;4038;42.612;23.066;2022-11-12T10:52:51;23.65;;;22.05;;
7985;SDS011;4038;42.612;23.066;2022-11-12T10:55:23;23.52;;;21.92;;
7985;SDS011;4038;42.612;23.066;2022-11-12T11:00:34;23.63;;;21.92;;
7985;SDS011;4038;42.612;23.066;2022-11-12T11:03:14;23.30;;;21.70;;
7985;SDS011;4038;42.612;23.066;2022-11-12T11:05:52;22.45;;;20.95;;
7985;SDS011;4038;42.612;23.066;2022-11-12T11:11:28;23.52;;;21.92;;
7985;SDS011;4038;42.612;23.066;2022-11-12T11:13:54;24.23;;;22.52;;
7985;SDS011;4038;42.612;23.066;2022-11-12T11:16:25;24.33;;;22.60;;
7985;SDS011;4038;42.612;23.066;2022-11-12T11:18:59;23.90;;;22.30;;
7985;SDS011;4038;42.612;23.066;2022-11-12T11:26:36;24.27;;;22.58;;
7985;SDS011;4038;42.612;23.066;2022-11-12T11:31:58;24.33;;;22.67;;
7985;SDS011;4038;42.612;23.066;2022-11-12T11:37:25;24.42;;;22.65;;
7985;SDS011;4038;42.612;23.066;2022-11-12T11:47:54;23.45;;;21.65;;
7985;SDS011;4038;42.612;23.066;2022-11-12T11:50:37;23.23;;;21.52;;
7985;SDS011;4038;42.612;23.066;2022-11-12T11:53:22;25.60;;;23.90;;
7985;SDS011;4038;42.612;23.066;2022-11-12T11:55:55;25.05;;;23.15;;
7985;SDS011;4038;42.612;23.066;2022-11-12T12:04:00;23.63;;;21.88;;
7985;SDS011;4038;42.612;23.066;2022-11-12T12:06:31;22.60;;;20.88;;
7985;SDS011;4038;42.612;23.066;2022-11-12T12:09:29;22.60;;;21.00;;
7985;SDS011;4038;42.612;23.066;2022-11-12T12:18:16;23.40;;;21.70;;
7985;SDS011;4038;42.612;23.066;2022-11-12T12:21:15;22.63;;;21.02;;
7985;SDS011;4038;42.612;23.066;2022-11-12T12:23:47;22.10;;;20.60;;
7985;SDS011;4038;42.612;23.066;2022-11-12T12:26:17;22.65;;;21.15;;
7985;SDS011;4038;42.612;23.066;2022-11-12T12:31:30;23.58;;;21.88;;
7985;SDS011;4038;42.612;23.066;2022-11-12T12:34:02;22.48;;;20.88;;
7985;SDS011;4038;42.612;23.066;2022-11-12T12:36:39;22.33;;;20.67;;
7985;SDS011;4038;42.612;23.066;2022-11-12T12:39:12;22.08;;;20.48;;
7985;SDS011;4038;42.612;23.066;2022-11-12T12:44:09;22.85;;;21.05;;
7985;SDS011;4038;42.612;23.066;2022-11-12T12:46:40;23.10;;;21.38;;
7985;SDS011;4038;42.612;23.066;2022-11-12T12:49:14;24.30;;;22.60;;
7985;SDS011;4038;42.612;23.066;2022-11-12T12:51:43;22.25;;;20.75;;
7985;SDS011;4038;42.612;23.066;2022-11-12T12:56:59;23.13;;;21.55;;
7985;SDS011;4038;42.612;23.066;2022-11-12T12:59:25;23.10;;;21.40;;
7985;SDS011;4038;42.612;23.066;2022-11-12T13:01:54;24.35;;;22.65;;
7985;SDS011;4038;42.612;23.066;2022-11-12T13:07:43;25.30;;;23.50;;
7985;SDS011;4038;42.612;23.066;2022-11-12T13:13:03;24.30;;;22.60;;
7985;SDS011;4038;42.612;23.066;2022-11-12T13:15:41;24.70;;;23.00;;
7985;SDS011;4038;42.612;23.066;2022-11-12T13:18:09;25.92;;;23.67;;
7985;SDS011;4038;42.612;23.066;2022-11-12T13:20:38;25.02;;;23.33;;
7985;SDS011;4038;42.612;23.066;2022-11-12T13:23:10;25.25;;;23.00;;
7985;SDS011;4038;42.612;23.066;2022-11-12T13:26:36;25.40;;;23.60;;
7985;SDS011;4038;42.612;23.066;2022-11-12T13:31:43;25.25;;;23.50;;
7985;SDS011;4038;42.612;23.066;2022-11-12T13:34:19;24.88;;;23.02;;
7985;SDS011;4038;42.612;23.066;2022-11-12T13:36:57;23.83;;;22.15;;
7985;SDS011;4038;42.612;23.066;2022-11-12T13:39:26;22.88;;;21.27;;
7985;SDS011;4038;42.612;23.066;2022-11-12T13:41:56;24.38;;;22.63;;
7985;SDS011;4038;42.612;23.066;2022-11-12T13:44:41;23.95;;;22.10;;
7985;SDS011;4038;42.612;23.066;2022-11-12T13:47:12;24.30;;;22.45;;
7985;SDS011;4038;42.612;23.066;2022-11-12T13:49:42;23.23;;;21.63;;
7985;SDS011;4038;42.612;23.066;2022-11-12T13:52:10;23.45;;;21.85;;
7985;SDS011;4038;42.612;23.066;2022-11-12T13:54:39;24.00;;;22.30;;
7985;SDS011;4038;42.612;23.066;2022-11-12T13:57:14;23.05;;;21.50;;
7985;SDS011;4038;42.612;23.066;2022-11-12T13:59:40;23.45;;;21.95;;
7985;SDS011;4038;42.612;23.066;2022-11-12T14:05:12;23.27;;;21.67;;
7985;SDS011;4038;42.612;23.066;2022-11-12T14:13:04;23.08;;;21.48;;
7985;SDS011;4038;42.612;23.066;2022-11-12T14:21:10;24.02;;;22.33;;
7985;SDS011;4038;42.612;23.066;2022-11-12T14:23:41;24.10;;;22.40;;
7985;SDS011;4038;42.612;23.066;2022-11-12T14:26:10;22.67;;;21.08;;
7985;SDS011;4038;42.612;23.066;2022-11-12T14:28:37;24.27;;;22.55;;
7985;SDS011;4038;42.612;23.066;2022-11-12T14:31:09;23.77;;;22.15;;
7985;SDS011;4038;42.612;23.066;2022-11-12T14:33:37;23.15;;;21.65;;
7985;SDS011;4038;42.612;23.066;2022-11-12T14:36:03;23.30;;;21.73;;
7985;SDS011;4038;42.612;23.066;2022-11-12T14:43:49;24.42;;;22.83;;
7985;SDS011;4038;42.612;23.066;2022-11-12T14:46:27;23.60;;;22.10;;
7985;SDS011;4038;42.612;23.066;2022-11-12T14:48:59;22.67;;;21.17;;
7985;SDS011;4038;42.612;23.066;2022-11-12T14:51:28;22.48;;;20.98;;
7985;SDS011;4038;42.612;23.066;2022-11-12T14:54:00;21.70;;;20.30;;
7985;SDS011;4038;42.612;23.066;2022-11-12T14:59:02;22.77;;;21.17;;
7985;SDS011;4038;42.612;23.066;2022-11-12T15:01:32;22.52;;;21.02;;
7985;SDS011;4038;42.612;23.066;2022-11-12T15:04:19;21.70;;;20.20;;
7985;SDS011;4038;42.612;23.066;2022-11-12T15:06:52;22.77;;;21.20;;
7985;SDS011;4038;42.612;23.066;2022-11-12T15:09:30;22.23;;;20.73;;
7985;SDS011;4038;42.612;23.066;2022-11-12T15:12:00;22.30;;;20.87;;
7985;SDS011;4038;42.612;23.066;2022-11-12T15:14:27;22.25;;;20.75;;
7985;SDS011;4038;42.612;23.066;2022-11-12T15:16:53;22.60;;;21.00;;
7985;SDS011;4038;42.612;23.066;2022-11-12T15:21:56;23.03;;;21.43;;
7985;SDS011;4038;42.612;23.066;2022-11-12T15:27:01;21.67;;;20.27;;
7985;SDS011;4038;42.612;23.066;2022-11-12T15:38:16;22.10;;;20.70;;
7985;SDS011;4038;42.612;23.066;2022-11-12T15:40:51;20.53;;;19.23;;
7985;SDS011;4038;42.612;23.066;2022-11-12T15:43:23;20.80;;;19.40;;
7985;SDS011;4038;42.612;23.066;2022-11-12T15:45:52;20.30;;;19.00;;
7985;SDS011;4038;42.612;23.066;2022-11-12T15:48:19;20.90;;;19.57;;
7985;SDS011;4038;42.612;23.066;2022-11-12T15:50:45;20.95;;;19.55;;
7985;SDS011;4038;42.612;23.066;2022-11-12T15:53:11;21.27;;;19.80;;
7985;SDS011;4038;42.612;23.066;2022-11-12T15:55:37;21.20;;;19.80;;
7985;SDS011;4038;42.612;23.066;2022-11-12T15:58:04;22.15;;;20.65;;
7985;SDS011;4038;42.612;23.066;2022-11-12T16:00:32;22.67;;;20.77;;
7985;SDS011;4038;42.612;23.066;2022-11-12T16:03:03;23.92;;;22.38;;
7985;SDS011;4038;42.612;23.066;2022-11-12T16:05:32;23.42;;;21.92;;
7985;SDS011;4038;42.612;23.066;2022-11-12T16:07:58;22.60;;;21.10;;
7985;SDS011;4038;42.612;23.066;2022-11-12T16:10:23;23.75;;;22.05;;
7985;SDS011;4038;42.612;23.066;2022-11-12T16:12:49;22.33;;;20.65;;
7985;SDS011;4038;42.612;23.066;2022-11-12T16:15:17;22.45;;;20.85;;
7985;SDS011;4038;42.612;23.066;2022-11-12T16:17:44;23.42;;;21.83;;
7985;SDS011;4038;42.612;23.066;2022-11-12T16:20:14;22.40;;;21.00;;
7985;SDS011;4038;42.612;23.066;2022-11-12T16:22:42;22.60;;;21.05;;
7985;SDS011;4038;42.612;23.066;2022-11-12T16:25:08;22.85;;;21.35;;
7985;SDS011;4038;42.612;23.066;2022-11-12T16:27:34;22.17;;;20.77;;
7985;SDS011;4038;42.612;23.066;2022-11-12T16:30:02;22.90;;;21.40;;
7985;SDS011;4038;42.612;23.066;2022-11-12T16:32:28;23.60;;;21.67;;
7985;SDS011;4038;42.612;23.066;2022-11-12T16:34:54;22.33;;;20.92;;
7985;SDS011;4038;42.612;23.066;2022-11-12T16:37:20;22.65;;;21.15;;
7985;SDS011;4038;42.612;23.066;2022-11-12T16:39:45;21.95;;;20.55;;
7985;SDS011;4038;42.612;23.066;2022-11-12T16:42:11;23.00;;;21.50;;
7985;SDS011;4038;42.612;23.066;2022-11-12T16:44:36;22.35;;;20.95;;
7985;SDS011;4038;42.612;23.066;2022-11-12T16:47:02;22.25;;;20.65;;
7985;SDS011;4038;42.612;23.066;2022-11-12T16:49:29;21.45;;;20.05;;
7985;SDS011;4038;42.612;23.066;2022-11-12T16:51:54;22.33;;;20.83;;